• Join FlightAware (Why Join?)
  • Login
  • US Flag 
12:39AM EDT


 

Airport Tracker/Info


-or-


 

Live Flight TrackerFlight Track Log ✈ ASQ5745 ✈ 19-May-2013 ✈ KIAD - KALB

Flight Track Log - Related Links

Times and Time Zones

All times are in EDT time to prevent confusion due to time zone crossing. See the ASQ5745 flight status page for this flight to view local times or setup timezone preferences in your user account.

Time Position Orientation Groundspeed Altitude Reporting Facility
EDT Latitude Longitude Course Direction KTS MPH feet Rate Location/Type
08:34AM 38.9500 -77.5000 North 170 196 1,400  Level Potomac TRACON
08:37AM 39.2141 -77.4500 North  Level FlightAware Approximate
08:37AM 39.0797 -77.6239 323° Northwest 271 312 7,400  Level Washington Center
08:38AM 39.3077 -77.4500 North  Level FlightAware Approximate
08:38AM 39.1481 -77.6417 349° North 277 319 9,700  Level Washington Center
08:39AM 39.4012 -77.4500 North  Level FlightAware Approximate
08:39AM 39.2319 -77.6092 17° North 282 325 11,700  Level Washington Center
08:40AM 39.4948 -77.4500 North  Level FlightAware Approximate
08:40AM 39.3244 -77.5742 16° North 305 351 13,200  Level Washington Center
08:41AM 39.4228 -77.5394 15° North 339 390 14,900 1,920 Climbing Washington Center
08:42AM 39.5214 -77.4989 18° North 355 409 17,000 1,980 Climbing Washington Center
08:43AM 39.6800 -77.4556 12° North 367 422 20,000 1,740 Climbing New York Center
08:44AM 39.7781 -77.4542 North 355 409 21,500 1,380 Climbing New York Center
08:45AM 39.8783 -77.4531 360° North 355 409 22,800 1,200 Climbing New York Center
08:46AM 39.9808 -77.4492 North 355 409 23,900 1,020 Climbing New York Center
08:47AM 40.0850 -77.4483 360° North 363 418 24,900 960 Climbing New York Center
08:48AM 40.1886 -77.4228 11° North 368 423 25,900 960 Climbing New York Center
08:49AM 40.2789 -77.3389 35° Northeast 369 425 26,900 540 Climbing New York Center
08:50AM 40.3581 -77.2647 36° Northeast 376 433 27,000  Climbing New York Center
08:51AM 40.4481 -77.1806 35° Northeast 383 441 27,000  Level New York Center
08:52AM 40.5381 -77.0986 35° Northeast 393 452 27,000  Level New York Center
08:53AM 40.6278 -77.0139 36° Northeast 393 452 27,000  Level New York Center
08:54AM 40.7156 -76.9317 35° Northeast 393 452 27,000  Level New York Center
08:55AM 40.8033 -76.8489 36° Northeast 393 452 27,000  Level New York Center
08:56AM 40.8886 -76.7686 35° Northeast 388 447 27,000  Level New York Center
08:57AM 40.9739 -76.6911 34° Northeast 382 440 27,000  Level New York Center
08:58AM 41.0592 -76.6075 36° Northeast 382 440 27,000  Level New York Center
08:59AM 41.1464 -76.5269 35° Northeast 376 433 27,000  Level New York Center
09:00AM 41.2317 -76.4458 36° Northeast 376 433 27,000  Level New York Center
09:01AM 41.3211 -76.3594 36° Northeast 370 426 27,000  Level New York Center
09:02AM 41.4017 -76.2833 35° Northeast 377 434 27,000  Level New York Center
09:04AM 41.5514 -76.0911 44° Northeast 364 419 27,000  Level Boston Center
09:05AM 41.6136 -75.9750 54° Northeast 370 426 27,000  Level Boston Center
09:06AM 41.6778 -75.8564 54° Northeast 387 445 27,000 -600 Level Boston Center
09:07AM 41.7417 -75.7372 54° Northeast 393 452 25,800 -1,200 Descending Boston Center
09:08AM 41.8078 -75.6153 54° Northeast 393 452 24,600 -900 Descending Boston Center
09:09AM 41.8714 -75.4958 54° Northeast 393 452 24,000 -300 Descending Boston Center
09:10AM 41.9350 -75.3761 54° Northeast 393 452 24,000  Level Boston Center
09:11AM 41.9986 -75.2561 54° Northeast 393 452 24,000  Level Boston Center
09:12AM 42.0619 -75.1358 55° Northeast 393 452 24,000 -780 Level Boston Center
09:13AM 42.1144 -75.0347 55° Northeast 387 445 22,500 -1,800 Descending Boston Center
09:14AM 42.1753 -74.9194 55° Northeast 382 440 20,500 -2,040 Descending Boston Center
09:15AM 42.2339 -74.8125 53° Northeast 369 425 18,500 -2,040 Descending Boston Center
09:16AM 42.2839 -74.7133 56° Northeast 348 400 16,900 -1,920 Descending Boston Center
09:16AM 42.3033 -74.6719 58° Northeast 342 394 16,200 -2,160 Descending Boston Center
09:17AM 42.3467 -74.5864 56° Northeast 346 398 14,400 -2,040 Descending Boston Center
09:18AM 42.3986 -74.4842 55° Northeast 335 386 12,600 -1,920 Descending Boston Center
09:18AM 42.4136 -74.4592 51° Northeast 329 379 12,000 -1,800 Descending Boston Center
09:19AM 42.4525 -74.3844 55° Northeast 323 372 10,800 -1,380 Descending Boston Center
09:20AM 42.4978 -74.2931 56° Northeast 310 357 9,600 -1,320 Descending Boston Center
09:20AM 42.5106 -74.2736 48° Northeast 278 320 9,200 -1,620 Descending Boston Center
09:21AM 42.5408 -74.2097 57° Northeast 282 325 8,000 -1,500 Descending Boston Center
09:21AM 42.5558 -74.1875 47° Northeast 276 318 7,700 -1,440 Descending Boston Center
09:22AM 42.5881 -74.1208 57° Northeast 282 325 6,600 -1,620 Descending Boston Center
09:22AM 42.6050 -74.1100 25° Northeast 284 327 6,100 -1,200 Descending Boston Center
09:23AM 42.6494 -74.0575 41° Northeast 277 319 5,400 -1,140 Descending Boston Center
09:23AM 42.6764 -74.0639 350° North 281 323 5,000 -540 Descending Boston Center
09:24AM 42.7206 -74.0369 24° Northeast 271 312 4,900 -300 Descending Boston Center
09:25AM 42.7458 -74.0206 25° Northeast 276 318 4,700 -840 Descending Boston Center
09:25AM 42.7900 -73.9961 22° Northeast 266 306 4,100 -1,140 Descending Boston Center
09:26AM 42.8214 -73.9800 21° North 249 287 3,500 -1,020 Descending Boston Center
09:26AM 42.8550 -73.9639 19° North 255 293 3,100 -600 Descending Boston Center
09:27AM 42.8739 -73.9444 37° Northeast 230 265 3,000 -120 Descending Boston Center
09:27AM 42.8869 -73.8994 68° East 199 229 3,000 -420 Level Boston Center
09:28AM 42.8917 -73.8656 79° East 193 222 2,600 -1,200 Descending Boston Center